PER weather

Perth International Airport
Perth, Western Australia, Australia

Public forecast

Using degrees Celsius for public forecast. Weather courtesy of forecast.io.

METAR (pilot weather report)

Retrieved 2017/10/21 02:30 UTC (0 seconds ago):

YPPH 210230Z 08014KT 9999 -SHRA NSC 23/06 Q1018 FM0230 MOD TURB BLW 3000FT TILL 0300 INTER 0330/0530 VRB25G40KT 7000 TSRA SCT080 FEW120CB

TAF (pilot weather forecast)

Forecast is more than 6 hours old.

Retrieved 2017/10/20 18:00 UTC (8 hours ago):

TAF YPPH 201704Z 2018/2124 08020G30KT CAVOK FM210200 07016KT 9999 -SHRA BKN100 FM211000 08020G30KT 9999 -SHRA BKN100 FM211800 08010KT 9999 -SHRA SCT045 BKN100 PROB30 INTER 2105/2116 VRB25G45KT 4000 TSRA SCT050 FEW100CB